This is the latest recevied weather packets stored in our database for station/object Winterlng. If no packets are shown the sender has not sent any weather packets the latest 10 day(s).
| Time | Temp. | Humidity | Pressure | Rain* | Wind** | Luminosity | Snow |
|---|---|---|---|---|---|---|---|
| 1778002330 | 13.33° C | 80% | 0 hPa | 1.27 mm | - | - | - |
| 1778000530 | 14.44° C | 77% | 0 hPa | 1.27 mm | - | - | - |
| 1777998731 | 14.44° C | 78% | 0 hPa | 1.27 mm | - | - | - |
| 1777995130 | 15° C | 71% | 0 hPa | 1.27 mm | - | - | - |
| 1777993336 | 14.44° C | 72% | 0 hPa | 1.27 mm | - | - | - |
| 1777991532 | 13.89° C | 77% | 0 hPa | 1.27 mm | - | - | - |
| 1777989730 | 13.33° C | 76% | 0 hPa | 1.27 mm | - | - | - |
| 1777987930 | 12.78° C | 82% | 0 hPa | 1.27 mm | - | - | - |
| 1777986130 | 12.78° C | 83% | 0 hPa | 1.02 mm | - | - | - |
| 1777984330 | 13.33° C | 82% | 0 hPa | 0.76 mm | - | - | - |
| 1777982530 | 13.33° C | 85% | 0 hPa | 0.25 mm | - | - | - |
| 1777980730 | 13.33° C | 82% | 0 hPa | 0 mm | - | - | - |
| 1777978931 | 15° C | 74% | 0 hPa | 0 mm | - | - | - |
| 1777977131 | 15° C | 73% | 0 hPa | 0 mm | - | - | - |
| 1777975332 | 14.44° C | 71% | 0 hPa | 0 mm | - | - | - |
| 1777973532 | 15° C | 69% | 0 hPa | 0 mm | - | - | - |
| 1777971732 | 15° C | 69% | 0 hPa | 0 mm | - | - | - |
| 1777969931 | 15.56° C | 66% | 0 hPa | 0 mm | - | - | - |
| 1777968131 | 16.11° C | 66% | 0 hPa | 0 mm | - | - | - |
| 1777966331 | 14.44° C | 73% | 0 hPa | 0 mm | - | - | - |
| 1777964532 | 13.89° C | 74% | 0 hPa | 0 mm | - | - | - |
| 1777962731 | 13.89° C | 72% | 0 hPa | 0 mm | - | - | - |
| 1777960932 | 14.44° C | 72% | 0 hPa | 0 mm | - | - | - |
| 1777959131 | 11.67° C | 80% | 0 hPa | 0 mm | - | - | - |
| 1777957331 | 12.78° C | 77% | 0 hPa | 0 mm | - | - | - |
* Rain since midnight (hover to see other rain measurements)
** Current wind speed in m/s (hover to see current wind gust speed)